sensor_id;sensor_type;location;lat;lon;timestamp;temperature;humidity
73360;DHT22;63092;43.582;19.528;2022-10-13T00:01:18;14.90;94.40
73360;DHT22;63092;43.582;19.528;2022-10-13T00:03:45;14.90;94.30
73360;DHT22;63092;43.582;19.528;2022-10-13T00:06:13;14.90;94.30
73360;DHT22;63092;43.582;19.528;2022-10-13T00:08:40;14.80;94.40
73360;DHT22;63092;43.582;19.528;2022-10-13T00:11:12;14.80;94.40
73360;DHT22;63092;43.582;19.528;2022-10-13T00:13:38;14.90;94.40
73360;DHT22;63092;43.582;19.528;2022-10-13T00:16:04;14.90;94.40
73360;DHT22;63092;43.582;19.528;2022-10-13T00:18:30;14.90;94.30
73360;DHT22;63092;43.582;19.528;2022-10-13T00:20:56;14.80;94.30
73360;DHT22;63092;43.582;19.528;2022-10-13T00:23:21;14.80;94.30
73360;DHT22;63092;43.582;19.528;2022-10-13T00:25:49;14.80;94.30
73360;DHT22;63092;43.582;19.528;2022-10-13T00:28:17;14.80;94.40
73360;DHT22;63092;43.582;19.528;2022-10-13T00:30:43;14.80;94.10
73360;DHT22;63092;43.582;19.528;2022-10-13T00:33:10;14.80;94.10
73360;DHT22;63092;43.582;19.528;2022-10-13T00:35:45;14.80;93.90
73360;DHT22;63092;43.582;19.528;2022-10-13T00:38:11;14.80;94.00
73360;DHT22;63092;43.582;19.528;2022-10-13T00:40:55;14.80;94.10
73360;DHT22;63092;43.582;19.528;2022-10-13T00:43:25;14.70;94.10
73360;DHT22;63092;43.582;19.528;2022-10-13T00:45:52;14.70;94.00
73360;DHT22;63092;43.582;19.528;2022-10-13T00:48:24;14.70;94.00
73360;DHT22;63092;43.582;19.528;2022-10-13T00:50:50;14.70;93.90
73360;DHT22;63092;43.582;19.528;2022-10-13T00:53:18;14.70;94.00
73360;DHT22;63092;43.582;19.528;2022-10-13T00:55:45;14.70;94.00
73360;DHT22;63092;43.582;19.528;2022-10-13T00:58:14;14.70;93.90
73360;DHT22;63092;43.582;19.528;2022-10-13T01:00:45;14.70;93.90
73360;DHT22;63092;43.582;19.528;2022-10-13T01:03:12;14.60;93.80
73360;DHT22;63092;43.582;19.528;2022-10-13T01:05:38;14.60;93.70
73360;DHT22;63092;43.582;19.528;2022-10-13T01:08:05;14.60;93.60
73360;DHT22;63092;43.582;19.528;2022-10-13T01:15:50;14.50;93.70
73360;DHT22;63092;43.582;19.528;2022-10-13T01:32:25;14.50;93.80
73360;DHT22;63092;43.582;19.528;2022-10-13T01:37:55;14.40;94.00
73360;DHT22;63092;43.582;19.528;2022-10-13T01:40:25;14.40;93.80
73360;DHT22;63092;43.582;19.528;2022-10-13T01:46:34;14.40;94.00
73360;DHT22;63092;43.582;19.528;2022-10-13T01:48:37;14.40;94.40
73360;DHT22;63092;43.582;19.528;2022-10-13T01:51:06;14.40;94.00
73360;DHT22;63092;43.582;19.528;2022-10-13T01:53:33;14.30;93.80
73360;DHT22;63092;43.582;19.528;2022-10-13T01:56:00;14.30;93.90
73360;DHT22;63092;43.582;19.528;2022-10-13T01:58:31;14.30;93.80
73360;DHT22;63092;43.582;19.528;2022-10-13T02:01:08;14.30;93.90
73360;DHT22;63092;43.582;19.528;2022-10-13T02:11:42;14.40;94.00
73360;DHT22;63092;43.582;19.528;2022-10-13T02:14:17;14.40;93.90
73360;DHT22;63092;43.582;19.528;2022-10-13T02:16:45;14.40;94.00
73360;DHT22;63092;43.582;19.528;2022-10-13T02:19:14;14.40;93.90
73360;DHT22;63092;43.582;19.528;2022-10-13T02:21:42;14.40;94.00
73360;DHT22;63092;43.582;19.528;2022-10-13T02:24:08;14.40;94.30
73360;DHT22;63092;43.582;19.528;2022-10-13T02:26:35;14.40;94.20
73360;DHT22;63092;43.582;19.528;2022-10-13T02:29:16;14.50;94.20
73360;DHT22;63092;43.582;19.528;2022-10-13T02:31:44;14.50;94.20
73360;DHT22;63092;43.582;19.528;2022-10-13T02:34:11;14.40;94.40
73360;DHT22;63092;43.582;19.528;2022-10-13T02:36:38;14.30;94.60
73360;DHT22;63092;43.582;19.528;2022-10-13T02:39:05;14.30;94.60
73360;DHT22;63092;43.582;19.528;2022-10-13T02:41:31;14.30;94.70
73360;DHT22;63092;43.582;19.528;2022-10-13T02:43:57;14.20;95.00
73360;DHT22;63092;43.582;19.528;2022-10-13T02:46:23;14.20;95.00
73360;DHT22;63092;43.582;19.528;2022-10-13T02:48:49;14.30;94.90
73360;DHT22;63092;43.582;19.528;2022-10-13T02:51:15;14.30;94.90
73360;DHT22;63092;43.582;19.528;2022-10-13T02:53:40;14.20;94.90
73360;DHT22;63092;43.582;19.528;2022-10-13T02:56:06;14.20;94.80
73360;DHT22;63092;43.582;19.528;2022-10-13T02:58:33;14.10;95.20
73360;DHT22;63092;43.582;19.528;2022-10-13T03:01:09;14.20;94.90
73360;DHT22;63092;43.582;19.528;2022-10-13T03:03:36;14.10;94.80
73360;DHT22;63092;43.582;19.528;2022-10-13T03:06:02;14.10;94.80
73360;DHT22;63092;43.582;19.528;2022-10-13T03:08:28;14.10;94.80
73360;DHT22;63092;43.582;19.528;2022-10-13T03:10:54;14.10;94.90
73360;DHT22;63092;43.582;19.528;2022-10-13T03:13:20;14.10;95.10
73360;DHT22;63092;43.582;19.528;2022-10-13T03:15:46;13.90;95.60
73360;DHT22;63092;43.582;19.528;2022-10-13T03:18:12;13.80;95.60
73360;DHT22;63092;43.582;19.528;2022-10-13T03:20:38;13.70;95.90
73360;DHT22;63092;43.582;19.528;2022-10-13T03:23:04;13.80;95.90
73360;DHT22;63092;43.582;19.528;2022-10-13T03:25:35;13.80;96.00
73360;DHT22;63092;43.582;19.528;2022-10-13T03:28:01;13.60;96.40
73360;DHT22;63092;43.582;19.528;2022-10-13T03:30:27;13.70;96.20
73360;DHT22;63092;43.582;19.528;2022-10-13T03:32:53;13.70;96.10
73360;DHT22;63092;43.582;19.528;2022-10-13T03:35:19;13.90;95.90
73360;DHT22;63092;43.582;19.528;2022-10-13T03:37:45;14.00;95.70
73360;DHT22;63092;43.582;19.528;2022-10-13T03:40:11;14.00;95.60
73360;DHT22;63092;43.582;19.528;2022-10-13T03:42:37;14.00;95.60
73360;DHT22;63092;43.582;19.528;2022-10-13T03:45:04;14.10;95.50
73360;DHT22;63092;43.582;19.528;2022-10-13T03:47:30;14.10;95.50
73360;DHT22;63092;43.582;19.528;2022-10-13T03:49:56;14.10;95.50
73360;DHT22;63092;43.582;19.528;2022-10-13T03:52:22;14.00;95.50
73360;DHT22;63092;43.582;19.528;2022-10-13T03:54:48;13.80;95.90
73360;DHT22;63092;43.582;19.528;2022-10-13T03:57:14;13.70;96.30
73360;DHT22;63092;43.582;19.528;2022-10-13T03:59:40;13.70;96.30
73360;DHT22;63092;43.582;19.528;2022-10-13T04:02:06;13.80;96.20
73360;DHT22;63092;43.582;19.528;2022-10-13T04:04:32;13.80;96.00
73360;DHT22;63092;43.582;19.528;2022-10-13T04:06:59;13.90;96.00
73360;DHT22;63092;43.582;19.528;2022-10-13T04:09:26;13.80;95.90
73360;DHT22;63092;43.582;19.528;2022-10-13T04:11:51;13.90;95.80
73360;DHT22;63092;43.582;19.528;2022-10-13T04:14:18;14.00;95.60
73360;DHT22;63092;43.582;19.528;2022-10-13T04:16:45;14.00;95.50
73360;DHT22;63092;43.582;19.528;2022-10-13T04:19:12;13.90;95.60
73360;DHT22;63092;43.582;19.528;2022-10-13T04:21:39;14.00;95.60
73360;DHT22;63092;43.582;19.528;2022-10-13T04:24:05;13.90;95.60
73360;DHT22;63092;43.582;19.528;2022-10-13T04:26:35;14.00;95.60
73360;DHT22;63092;43.582;19.528;2022-10-13T04:29:03;14.00;95.60
73360;DHT22;63092;43.582;19.528;2022-10-13T04:31:29;14.00;95.50
73360;DHT22;63092;43.582;19.528;2022-10-13T04:33:55;14.00;95.40
73360;DHT22;63092;43.582;19.528;2022-10-13T04:36:22;14.00;95.60
73360;DHT22;63092;43.582;19.528;2022-10-13T04:38:48;14.00;95.60
73360;DHT22;63092;43.582;19.528;2022-10-13T04:41:15;14.10;95.60
73360;DHT22;63092;43.582;19.528;2022-10-13T04:43:41;14.10;95.50
73360;DHT22;63092;43.582;19.528;2022-10-13T04:46:15;14.10;95.20
73360;DHT22;63092;43.582;19.528;2022-10-13T04:48:43;13.90;95.20
73360;DHT22;63092;43.582;19.528;2022-10-13T04:51:12;13.90;95.40
73360;DHT22;63092;43.582;19.528;2022-10-13T04:53:38;13.80;95.50
73360;DHT22;63092;43.582;19.528;2022-10-13T04:56:06;13.90;95.40
73360;DHT22;63092;43.582;19.528;2022-10-13T04:58:36;14.00;95.30
73360;DHT22;63092;43.582;19.528;2022-10-13T05:01:04;14.00;95.30
73360;DHT22;63092;43.582;19.528;2022-10-13T05:03:30;14.00;95.30
73360;DHT22;63092;43.582;19.528;2022-10-13T05:05:56;14.00;95.40
73360;DHT22;63092;43.582;19.528;2022-10-13T05:08:22;14.00;95.20
73360;DHT22;63092;43.582;19.528;2022-10-13T05:10:59;14.00;95.20
73360;DHT22;63092;43.582;19.528;2022-10-13T05:13:26;14.10;95.10
73360;DHT22;63092;43.582;19.528;2022-10-13T05:15:52;13.90;95.30
73360;DHT22;63092;43.582;19.528;2022-10-13T05:18:18;14.00;95.20
73360;DHT22;63092;43.582;19.528;2022-10-13T05:20:44;14.10;95.50
73360;DHT22;63092;43.582;19.528;2022-10-13T05:23:12;14.10;95.00
73360;DHT22;63092;43.582;19.528;2022-10-13T05:25:38;14.10;95.10
73360;DHT22;63092;43.582;19.528;2022-10-13T05:28:05;14.10;94.90
73360;DHT22;63092;43.582;19.528;2022-10-13T05:30:31;14.10;94.90
73360;DHT22;63092;43.582;19.528;2022-10-13T05:32:57;14.10;94.90
73360;DHT22;63092;43.582;19.528;2022-10-13T05:35:23;14.10;95.10
73360;DHT22;63092;43.582;19.528;2022-10-13T05:37:49;14.10;95.10
73360;DHT22;63092;43.582;19.528;2022-10-13T05:40:15;14.20;95.00
73360;DHT22;63092;43.582;19.528;2022-10-13T05:42:41;14.20;95.00
73360;DHT22;63092;43.582;19.528;2022-10-13T05:45:10;14.20;95.00
73360;DHT22;63092;43.582;19.528;2022-10-13T05:47:36;14.20;94.90
73360;DHT22;63092;43.582;19.528;2022-10-13T05:50:01;14.30;94.80
73360;DHT22;63092;43.582;19.528;2022-10-13T05:52:28;14.30;94.80
73360;DHT22;63092;43.582;19.528;2022-10-13T05:54:59;14.30;94.70
73360;DHT22;63092;43.582;19.528;2022-10-13T05:57:41;14.40;94.60
73360;DHT22;63092;43.582;19.528;2022-10-13T06:00:11;14.50;94.50
73360;DHT22;63092;43.582;19.528;2022-10-13T06:02:51;14.40;94.50
73360;DHT22;63092;43.582;19.528;2022-10-13T06:05:21;14.30;94.40
73360;DHT22;63092;43.582;19.528;2022-10-13T06:07:48;14.40;94.40
73360;DHT22;63092;43.582;19.528;2022-10-13T06:10:14;14.50;94.50
73360;DHT22;63092;43.582;19.528;2022-10-13T06:12:40;14.40;94.40
73360;DHT22;63092;43.582;19.528;2022-10-13T06:15:06;14.40;94.40
73360;DHT22;63092;43.582;19.528;2022-10-13T06:17:35;14.40;94.40
73360;DHT22;63092;43.582;19.528;2022-10-13T06:20:02;14.20;94.70
73360;DHT22;63092;43.582;19.528;2022-10-13T06:22:31;14.20;94.80
73360;DHT22;63092;43.582;19.528;2022-10-13T06:24:57;14.30;94.80
73360;DHT22;63092;43.582;19.528;2022-10-13T06:27:23;14.30;94.50
73360;DHT22;63092;43.582;19.528;2022-10-13T06:29:48;14.00;95.10
73360;DHT22;63092;43.582;19.528;2022-10-13T06:32:14;14.00;95.10
73360;DHT22;63092;43.582;19.528;2022-10-13T06:34:40;14.00;95.10
73360;DHT22;63092;43.582;19.528;2022-10-13T06:37:06;14.00;94.90
73360;DHT22;63092;43.582;19.528;2022-10-13T06:39:32;14.00;95.20
73360;DHT22;63092;43.582;19.528;2022-10-13T06:41:57;14.10;95.00
73360;DHT22;63092;43.582;19.528;2022-10-13T06:44:23;14.20;94.70
73360;DHT22;63092;43.582;19.528;2022-10-13T06:46:49;14.40;94.50
73360;DHT22;63092;43.582;19.528;2022-10-13T06:49:14;14.50;94.10
73360;DHT22;63092;43.582;19.528;2022-10-13T06:51:40;14.50;94.10
73360;DHT22;63092;43.582;19.528;2022-10-13T06:54:06;14.60;94.40
73360;DHT22;63092;43.582;19.528;2022-10-13T06:56:32;14.50;94.00
73360;DHT22;63092;43.582;19.528;2022-10-13T06:58:57;14.50;94.30
73360;DHT22;63092;43.582;19.528;2022-10-13T07:01:23;14.30;94.30
73360;DHT22;63092;43.582;19.528;2022-10-13T07:03:50;14.30;94.60
73360;DHT22;63092;43.582;19.528;2022-10-13T07:06:16;14.50;94.20
73360;DHT22;63092;43.582;19.528;2022-10-13T07:08:43;14.60;94.20
73360;DHT22;63092;43.582;19.528;2022-10-13T07:11:11;14.80;93.80
73360;DHT22;63092;43.582;19.528;2022-10-13T07:13:38;14.90;93.40
73360;DHT22;63092;43.582;19.528;2022-10-13T07:16:05;15.00;93.50
73360;DHT22;63092;43.582;19.528;2022-10-13T07:18:31;15.10;92.90
73360;DHT22;63092;43.582;19.528;2022-10-13T07:20:58;15.30;92.70
73360;DHT22;63092;43.582;19.528;2022-10-13T07:23:24;15.20;92.40
73360;DHT22;63092;43.582;19.528;2022-10-13T07:25:51;15.30;92.30
73360;DHT22;63092;43.582;19.528;2022-10-13T07:28:17;15.30;92.20
73360;DHT22;63092;43.582;19.528;2022-10-13T07:30:42;15.40;92.10
73360;DHT22;63092;43.582;19.528;2022-10-13T07:33:09;15.50;91.80
73360;DHT22;63092;43.582;19.528;2022-10-13T07:35:37;15.60;91.90
73360;DHT22;63092;43.582;19.528;2022-10-13T07:38:03;15.70;91.40
73360;DHT22;63092;43.582;19.528;2022-10-13T07:40:29;15.80;91.40
73360;DHT22;63092;43.582;19.528;2022-10-13T07:42:55;15.90;90.90
73360;DHT22;63092;43.582;19.528;2022-10-13T07:45:21;16.00;90.90
73360;DHT22;63092;43.582;19.528;2022-10-13T07:47:47;16.10;91.10
73360;DHT22;63092;43.582;19.528;2022-10-13T07:50:13;16.00;90.90
73360;DHT22;63092;43.582;19.528;2022-10-13T07:52:39;16.00;90.90
73360;DHT22;63092;43.582;19.528;2022-10-13T07:55:05;16.10;90.60
73360;DHT22;63092;43.582;19.528;2022-10-13T07:57:31;16.30;90.30
73360;DHT22;63092;43.582;19.528;2022-10-13T07:59:56;16.40;90.40
73360;DHT22;63092;43.582;19.528;2022-10-13T08:02:22;16.60;89.70
73360;DHT22;63092;43.582;19.528;2022-10-13T08:04:48;16.60;90.20
73360;DHT22;63092;43.582;19.528;2022-10-13T08:07:14;16.50;90.20
73360;DHT22;63092;43.582;19.528;2022-10-13T08:09:41;16.60;90.20
73360;DHT22;63092;43.582;19.528;2022-10-13T08:12:07;16.70;90.20
73360;DHT22;63092;43.582;19.528;2022-10-13T08:14:33;16.70;89.90
73360;DHT22;63092;43.582;19.528;2022-10-13T08:16:59;16.90;89.50
73360;DHT22;63092;43.582;19.528;2022-10-13T08:19:26;16.80;90.00
73360;DHT22;63092;43.582;19.528;2022-10-13T08:21:53;17.10;88.30
73360;DHT22;63092;43.582;19.528;2022-10-13T08:24:20;16.90;87.70
73360;DHT22;63092;43.582;19.528;2022-10-13T08:26:47;17.10;87.40
73360;DHT22;63092;43.582;19.528;2022-10-13T08:29:13;17.10;87.70
73360;DHT22;63092;43.582;19.528;2022-10-13T08:31:40;17.20;87.40
73360;DHT22;63092;43.582;19.528;2022-10-13T08:34:07;17.30;87.00
73360;DHT22;63092;43.582;19.528;2022-10-13T08:36:33;17.40;86.90
73360;DHT22;63092;43.582;19.528;2022-10-13T08:38:59;17.50;86.20
73360;DHT22;63092;43.582;19.528;2022-10-13T08:41:29;17.60;86.10
73360;DHT22;63092;43.582;19.528;2022-10-13T08:44:02;17.70;85.40
73360;DHT22;63092;43.582;19.528;2022-10-13T08:49:23;17.80;85.70
73360;DHT22;63092;43.582;19.528;2022-10-13T08:51:49;17.90;85.10
73360;DHT22;63092;43.582;19.528;2022-10-13T08:54:16;17.90;85.20
73360;DHT22;63092;43.582;19.528;2022-10-13T08:56:43;17.90;84.10
73360;DHT22;63092;43.582;19.528;2022-10-13T08:59:13;18.00;84.40
73360;DHT22;63092;43.582;19.528;2022-10-13T09:01:41;18.10;84.40
73360;DHT22;63092;43.582;19.528;2022-10-13T09:04:27;18.10;83.60
73360;DHT22;63092;43.582;19.528;2022-10-13T09:09:36;18.00;84.40
73360;DHT22;63092;43.582;19.528;2022-10-13T09:12:03;18.20;84.70
73360;DHT22;63092;43.582;19.528;2022-10-13T09:14:30;18.30;84.10
73360;DHT22;63092;43.582;19.528;2022-10-13T09:19:36;18.20;83.00
73360;DHT22;63092;43.582;19.528;2022-10-13T09:22:22;18.20;83.30
73360;DHT22;63092;43.582;19.528;2022-10-13T09:27:56;18.40;83.70
73360;DHT22;63092;43.582;19.528;2022-10-13T09:30:40;18.60;83.20
73360;DHT22;63092;43.582;19.528;2022-10-13T09:35:40;18.80;81.50
73360;DHT22;63092;43.582;19.528;2022-10-13T09:38:10;18.80;80.90
73360;DHT22;63092;43.582;19.528;2022-10-13T09:40:37;18.80;80.70
73360;DHT22;63092;43.582;19.528;2022-10-13T09:43:35;18.90;81.80
73360;DHT22;63092;43.582;19.528;2022-10-13T09:46:10;19.00;80.70
73360;DHT22;63092;43.582;19.528;2022-10-13T09:48:37;19.20;80.90
73360;DHT22;63092;43.582;19.528;2022-10-13T09:51:04;19.10;80.70
73360;DHT22;63092;43.582;19.528;2022-10-13T09:56:41;19.10;79.50
73360;DHT22;63092;43.582;19.528;2022-10-13T09:59:29;19.30;80.00
73360;DHT22;63092;43.582;19.528;2022-10-13T10:04:48;19.30;79.60
73360;DHT22;63092;43.582;19.528;2022-10-13T10:07:19;19.10;80.30
73360;DHT22;63092;43.582;19.528;2022-10-13T10:09:56;19.00;80.10
73360;DHT22;63092;43.582;19.528;2022-10-13T10:12:25;19.00;80.40
73360;DHT22;63092;43.582;19.528;2022-10-13T10:14:53;19.10;80.10
73360;DHT22;63092;43.582;19.528;2022-10-13T10:17:20;19.30;80.20
73360;DHT22;63092;43.582;19.528;2022-10-13T10:25:57;19.60;76.50
73360;DHT22;63092;43.582;19.528;2022-10-13T10:31:19;20.10;85.40
73360;DHT22;63092;43.582;19.528;2022-10-13T10:34:05;20.10;74.50
73360;DHT22;63092;43.582;19.528;2022-10-13T10:39:37;20.30;74.00
73360;DHT22;63092;43.582;19.528;2022-10-13T10:45:00;20.50;74.60
73360;DHT22;63092;43.582;19.528;2022-10-13T10:47:39;20.50;73.30
73360;DHT22;63092;43.582;19.528;2022-10-13T10:50:11;20.80;73.50
73360;DHT22;63092;43.582;19.528;2022-10-13T10:55:19;21.00;72.10
73360;DHT22;63092;43.582;19.528;2022-10-13T11:00:19;21.00;71.50
73360;DHT22;63092;43.582;19.528;2022-10-13T11:05:24;21.30;80.80
73360;DHT22;63092;43.582;19.528;2022-10-13T11:10:18;21.30;69.80
73360;DHT22;63092;43.582;19.528;2022-10-13T11:15:40;21.40;69.90
73360;DHT22;63092;43.582;19.528;2022-10-13T11:21:10;21.20;69.90
73360;DHT22;63092;43.582;19.528;2022-10-13T11:23:43;21.10;70.20
73360;DHT22;63092;43.582;19.528;2022-10-13T11:28:50;21.00;70.10
73360;DHT22;63092;43.582;19.528;2022-10-13T11:31:28;21.00;70.30
73360;DHT22;63092;43.582;19.528;2022-10-13T11:34:00;21.00;70.00
73360;DHT22;63092;43.582;19.528;2022-10-13T11:36:47;20.80;69.30
73360;DHT22;63092;43.582;19.528;2022-10-13T11:44:34;20.50;71.00
73360;DHT22;63092;43.582;19.528;2022-10-13T11:55:14;20.10;71.50
73360;DHT22;63092;43.582;19.528;2022-10-13T11:57:42;20.00;71.40
73360;DHT22;63092;43.582;19.528;2022-10-13T12:00:19;20.00;71.30
73360;DHT22;63092;43.582;19.528;2022-10-13T12:02:52;20.00;71.10
73360;DHT22;63092;43.582;19.528;2022-10-13T12:05:24;20.10;72.00
73360;DHT22;63092;43.582;19.528;2022-10-13T12:07:53;20.00;70.70
73360;DHT22;63092;43.582;19.528;2022-10-13T12:12:52;20.00;71.00
73360;DHT22;63092;43.582;19.528;2022-10-13T12:15:39;20.00;71.30
73360;DHT22;63092;43.582;19.528;2022-10-13T12:18:23;20.00;70.90
73360;DHT22;63092;43.582;19.528;2022-10-13T12:21:13;20.10;71.70
73360;DHT22;63092;43.582;19.528;2022-10-13T12:23:40;20.20;71.90
73360;DHT22;63092;43.582;19.528;2022-10-13T12:26:05;20.30;70.60
73360;DHT22;63092;43.582;19.528;2022-10-13T12:28:57;20.50;69.90
73360;DHT22;63092;43.582;19.528;2022-10-13T12:31:29;20.60;70.10
73360;DHT22;63092;43.582;19.528;2022-10-13T12:34:02;20.70;69.80
73360;DHT22;63092;43.582;19.528;2022-10-13T12:36:30;20.80;69.50
73360;DHT22;63092;43.582;19.528;2022-10-13T12:39:03;20.80;68.30
73360;DHT22;63092;43.582;19.528;2022-10-13T12:41:32;20.90;68.10
73360;DHT22;63092;43.582;19.528;2022-10-13T12:43:59;20.90;67.20
73360;DHT22;63092;43.582;19.528;2022-10-13T12:46:44;20.90;68.90
73360;DHT22;63092;43.582;19.528;2022-10-13T12:49:27;21.00;67.60
73360;DHT22;63092;43.582;19.528;2022-10-13T12:52:04;21.00;68.90
73360;DHT22;63092;43.582;19.528;2022-10-13T12:54:37;21.00;67.30
73360;DHT22;63092;43.582;19.528;2022-10-13T12:57:11;21.00;68.00
73360;DHT22;63092;43.582;19.528;2022-10-13T12:59:41;20.90;68.60
73360;DHT22;63092;43.582;19.528;2022-10-13T13:02:20;20.90;68.50
73360;DHT22;63092;43.582;19.528;2022-10-13T13:04:48;20.80;68.10
73360;DHT22;63092;43.582;19.528;2022-10-13T13:07:40;20.80;69.60
73360;DHT22;63092;43.582;19.528;2022-10-13T13:10:18;20.80;67.60
73360;DHT22;63092;43.582;19.528;2022-10-13T13:12:44;20.80;67.80
73360;DHT22;63092;43.582;19.528;2022-10-13T13:15:36;20.70;68.80
73360;DHT22;63092;43.582;19.528;2022-10-13T13:18:28;20.70;67.70
73360;DHT22;63092;43.582;19.528;2022-10-13T13:20:56;20.80;68.10
73360;DHT22;63092;43.582;19.528;2022-10-13T13:23:22;20.70;67.80
73360;DHT22;63092;43.582;19.528;2022-10-13T13:26:02;20.70;67.40
73360;DHT22;63092;43.582;19.528;2022-10-13T13:28:30;20.70;67.90
73360;DHT22;63092;43.582;19.528;2022-10-13T13:30:56;20.80;66.90
73360;DHT22;63092;43.582;19.528;2022-10-13T13:33:22;20.80;67.80
73360;DHT22;63092;43.582;19.528;2022-10-13T13:35:48;20.80;68.00
73360;DHT22;63092;43.582;19.528;2022-10-13T13:38:14;20.90;68.10
73360;DHT22;63092;43.582;19.528;2022-10-13T13:40:40;20.90;68.70
73360;DHT22;63092;43.582;19.528;2022-10-13T13:43:07;20.90;69.50
73360;DHT22;63092;43.582;19.528;2022-10-13T13:45:33;20.90;68.60
73360;DHT22;63092;43.582;19.528;2022-10-13T13:48:00;20.90;67.10
73360;DHT22;63092;43.582;19.528;2022-10-13T13:50:31;20.90;66.20
73360;DHT22;63092;43.582;19.528;2022-10-13T13:52:58;20.90;66.60
73360;DHT22;63092;43.582;19.528;2022-10-13T13:55:25;20.80;65.80
73360;DHT22;63092;43.582;19.528;2022-10-13T13:57:51;20.80;66.20
73360;DHT22;63092;43.582;19.528;2022-10-13T14:00:17;20.80;67.90
73360;DHT22;63092;43.582;19.528;2022-10-13T14:02:43;20.80;66.80
73360;DHT22;63092;43.582;19.528;2022-10-13T14:05:10;20.80;67.30
73360;DHT22;63092;43.582;19.528;2022-10-13T14:07:37;20.70;67.50
73360;DHT22;63092;43.582;19.528;2022-10-13T14:10:04;20.70;66.20
73360;DHT22;63092;43.582;19.528;2022-10-13T14:12:31;20.70;65.20
73360;DHT22;63092;43.582;19.528;2022-10-13T14:14:57;20.60;67.10
73360;DHT22;63092;43.582;19.528;2022-10-13T14:17:24;20.70;67.30
73360;DHT22;63092;43.582;19.528;2022-10-13T14:19:50;20.60;66.90
73360;DHT22;63092;43.582;19.528;2022-10-13T14:22:15;20.70;66.70
73360;DHT22;63092;43.582;19.528;2022-10-13T14:24:41;20.60;66.50
73360;DHT22;63092;43.582;19.528;2022-10-13T14:27:07;20.50;67.30
73360;DHT22;63092;43.582;19.528;2022-10-13T14:29:34;20.50;67.50
73360;DHT22;63092;43.582;19.528;2022-10-13T14:32:00;20.40;67.50
73360;DHT22;63092;43.582;19.528;2022-10-13T14:34:26;20.40;67.60
73360;DHT22;63092;43.582;19.528;2022-10-13T14:36:52;20.50;67.00
73360;DHT22;63092;43.582;19.528;2022-10-13T14:39:17;20.50;65.90
73360;DHT22;63092;43.582;19.528;2022-10-13T14:41:43;20.40;66.30
73360;DHT22;63092;43.582;19.528;2022-10-13T14:44:11;20.40;66.70
73360;DHT22;63092;43.582;19.528;2022-10-13T14:46:38;20.40;67.60
73360;DHT22;63092;43.582;19.528;2022-10-13T14:49:04;20.30;66.50
73360;DHT22;63092;43.582;19.528;2022-10-13T14:51:31;20.20;67.10
73360;DHT22;63092;43.582;19.528;2022-10-13T14:53:56;20.20;67.70
73360;DHT22;63092;43.582;19.528;2022-10-13T14:56:24;20.20;68.30
73360;DHT22;63092;43.582;19.528;2022-10-13T14:58:52;20.20;68.30
73360;DHT22;63092;43.582;19.528;2022-10-13T15:01:18;20.20;67.90
73360;DHT22;63092;43.582;19.528;2022-10-13T15:03:45;20.20;68.10
73360;DHT22;63092;43.582;19.528;2022-10-13T15:06:18;20.20;69.80
73360;DHT22;63092;43.582;19.528;2022-10-13T15:08:45;20.20;70.00
73360;DHT22;63092;43.582;19.528;2022-10-13T15:11:11;20.10;70.20
73360;DHT22;63092;43.582;19.528;2022-10-13T15:13:38;20.10;70.30
73360;DHT22;63092;43.582;19.528;2022-10-13T15:16:04;20.00;71.70
73360;DHT22;63092;43.582;19.528;2022-10-13T15:18:31;20.00;70.50
73360;DHT22;63092;43.582;19.528;2022-10-13T15:20:57;19.90;69.60
73360;DHT22;63092;43.582;19.528;2022-10-13T15:23:24;19.90;68.60
73360;DHT22;63092;43.582;19.528;2022-10-13T15:25:51;19.80;66.70
73360;DHT22;63092;43.582;19.528;2022-10-13T15:28:17;19.80;67.10
73360;DHT22;63092;43.582;19.528;2022-10-13T15:30:43;19.70;69.70
73360;DHT22;63092;43.582;19.528;2022-10-13T15:33:09;19.70;69.40
73360;DHT22;63092;43.582;19.528;2022-10-13T15:35:35;19.70;68.30
73360;DHT22;63092;43.582;19.528;2022-10-13T15:38:01;19.70;67.80
73360;DHT22;63092;43.582;19.528;2022-10-13T15:40:26;19.60;65.20
73360;DHT22;63092;43.582;19.528;2022-10-13T15:42:52;19.40;64.50
73360;DHT22;63092;43.582;19.528;2022-10-13T15:45:18;19.40;65.70
73360;DHT22;63092;43.582;19.528;2022-10-13T15:47:44;19.30;61.40
73360;DHT22;63092;43.582;19.528;2022-10-13T15:50:10;19.30;61.30
73360;DHT22;63092;43.582;19.528;2022-10-13T15:52:39;19.30;61.50
73360;DHT22;63092;43.582;19.528;2022-10-13T15:55:06;19.30;62.30
73360;DHT22;63092;43.582;19.528;2022-10-13T15:57:32;19.10;63.60
73360;DHT22;63092;43.582;19.528;2022-10-13T15:59:58;19.00;64.70
73360;DHT22;63092;43.582;19.528;2022-10-13T16:02:25;19.10;64.30
73360;DHT22;63092;43.582;19.528;2022-10-13T16:04:51;19.00;62.70
73360;DHT22;63092;43.582;19.528;2022-10-13T16:07:17;18.90;62.80
73360;DHT22;63092;43.582;19.528;2022-10-13T16:09:45;18.80;61.50
73360;DHT22;63092;43.582;19.528;2022-10-13T16:12:11;18.80;66.50
73360;DHT22;63092;43.582;19.528;2022-10-13T16:14:37;18.80;65.80
73360;DHT22;63092;43.582;19.528;2022-10-13T16:17:03;18.80;66.80
73360;DHT22;63092;43.582;19.528;2022-10-13T16:19:28;18.70;66.70
73360;DHT22;63092;43.582;19.528;2022-10-13T16:21:54;18.60;67.00
73360;DHT22;63092;43.582;19.528;2022-10-13T16:24:20;18.50;67.30
73360;DHT22;63092;43.582;19.528;2022-10-13T16:26:46;18.50;67.60
73360;DHT22;63092;43.582;19.528;2022-10-13T16:29:11;18.30;67.80
73360;DHT22;63092;43.582;19.528;2022-10-13T16:31:37;18.20;68.20
73360;DHT22;63092;43.582;19.528;2022-10-13T16:34:03;18.10;67.90
73360;DHT22;63092;43.582;19.528;2022-10-13T16:36:28;18.10;68.30
73360;DHT22;63092;43.582;19.528;2022-10-13T16:38:54;18.00;68.40
73360;DHT22;63092;43.582;19.528;2022-10-13T16:41:20;18.00;69.20
73360;DHT22;63092;43.582;19.528;2022-10-13T16:43:47;18.00;69.60
73360;DHT22;63092;43.582;19.528;2022-10-13T16:46:15;18.00;69.30
73360;DHT22;63092;43.582;19.528;2022-10-13T16:48:42;17.90;69.40
73360;DHT22;63092;43.582;19.528;2022-10-13T16:51:12;17.90;70.00
73360;DHT22;63092;43.582;19.528;2022-10-13T16:53:38;17.80;69.70
73360;DHT22;63092;43.582;19.528;2022-10-13T16:56:04;17.80;70.30
73360;DHT22;63092;43.582;19.528;2022-10-13T16:58:31;17.80;71.40
73360;DHT22;63092;43.582;19.528;2022-10-13T17:01:07;17.70;72.60
73360;DHT22;63092;43.582;19.528;2022-10-13T17:03:34;17.80;73.60
73360;DHT22;63092;43.582;19.528;2022-10-13T17:06:00;17.90;72.90